Terminal Aerodrome Forecast
Issued by NWS

Home | Current Version | Previous Version | Graphics & Text | Print | Product List | Glossary On
Versions: 1 2 3 4 5 6 7 8 9 10 11 12 13 14 15
000
FTUS43 KGRB 202337
TAFCWA
TAF
KCWA 202337Z 2100/2124 28010G15KT 6SM BR SCT010 BKN020
      TEMPO 2100/2102 2SM -RADZ BR SCT009 BKN010
     FM210200 31010G15KT P6SM SCT010 BKN020
      TEMPO 2102/2104 5SM -RADZ BR BKN010
     FM210400 32008KT P6SM BKN015
     FM211500 35011KT P6SM SCT018 SCT050
     FM211700 35010KT P6SM FEW050=

USA.gov is the U.S. government's official web portal to all federal, state and local government web resources and services.